sensor_id;sensor_type;location;lat;lon;timestamp;temperature;humidity
2300;DHT22;1158;48.750;9.078;2023-05-14T00:00:22;9.50;99.90
2300;DHT22;1158;48.750;9.078;2023-05-14T00:02:49;9.50;99.90
2300;DHT22;1158;48.750;9.078;2023-05-14T00:05:17;9.50;99.90
2300;DHT22;1158;48.750;9.078;2023-05-14T00:07:44;9.50;99.90
2300;DHT22;1158;48.750;9.078;2023-05-14T00:10:10;9.50;99.90
2300;DHT22;1158;48.750;9.078;2023-05-14T00:12:37;9.50;99.90
2300;DHT22;1158;48.750;9.078;2023-05-14T00:15:04;9.50;99.90
2300;DHT22;1158;48.750;9.078;2023-05-14T00:17:31;9.50;99.90
2300;DHT22;1158;48.750;9.078;2023-05-14T00:19:58;9.50;99.90
2300;DHT22;1158;48.750;9.078;2023-05-14T00:22:26;9.40;99.90
2300;DHT22;1158;48.750;9.078;2023-05-14T00:24:52;9.40;99.90
2300;DHT22;1158;48.750;9.078;2023-05-14T00:27:19;9.40;99.90
2300;DHT22;1158;48.750;9.078;2023-05-14T00:29:46;9.40;99.90
2300;DHT22;1158;48.750;9.078;2023-05-14T00:32:12;9.40;99.90
2300;DHT22;1158;48.750;9.078;2023-05-14T00:34:39;9.40;99.90
2300;DHT22;1158;48.750;9.078;2023-05-14T00:37:06;9.40;99.90
2300;DHT22;1158;48.750;9.078;2023-05-14T00:39:34;9.40;99.90
2300;DHT22;1158;48.750;9.078;2023-05-14T00:42:01;9.40;99.90
2300;DHT22;1158;48.750;9.078;2023-05-14T00:44:27;9.40;99.90
2300;DHT22;1158;48.750;9.078;2023-05-14T00:46:54;9.30;99.90
2300;DHT22;1158;48.750;9.078;2023-05-14T00:49:21;9.30;99.90
2300;DHT22;1158;48.750;9.078;2023-05-14T00:51:48;9.30;99.90
2300;DHT22;1158;48.750;9.078;2023-05-14T00:54:16;9.30;99.90
2300;DHT22;1158;48.750;9.078;2023-05-14T00:56:45;9.30;99.90
2300;DHT22;1158;48.750;9.078;2023-05-14T00:59:12;9.30;99.90
2300;DHT22;1158;48.750;9.078;2023-05-14T01:01:39;9.30;99.90
2300;DHT22;1158;48.750;9.078;2023-05-14T01:04:06;9.20;99.90
2300;DHT22;1158;48.750;9.078;2023-05-14T01:06:39;9.20;99.90
2300;DHT22;1158;48.750;9.078;2023-05-14T01:09:21;9.30;99.90
2300;DHT22;1158;48.750;9.078;2023-05-14T01:11:54;9.30;99.90
2300;DHT22;1158;48.750;9.078;2023-05-14T01:14:26;9.20;99.90
2300;DHT22;1158;48.750;9.078;2023-05-14T01:16:57;9.30;99.90
2300;DHT22;1158;48.750;9.078;2023-05-14T01:19:28;9.30;99.90
2300;DHT22;1158;48.750;9.078;2023-05-14T01:21:58;9.30;99.90
2300;DHT22;1158;48.750;9.078;2023-05-14T01:24:25;9.30;99.90
2300;DHT22;1158;48.750;9.078;2023-05-14T01:26:52;9.20;99.90
2300;DHT22;1158;48.750;9.078;2023-05-14T01:29:22;9.20;99.90
2300;DHT22;1158;48.750;9.078;2023-05-14T01:31:49;9.20;99.90
2300;DHT22;1158;48.750;9.078;2023-05-14T01:34:20;9.10;99.90
2300;DHT22;1158;48.750;9.078;2023-05-14T01:36:49;9.00;99.90
2300;DHT22;1158;48.750;9.078;2023-05-14T01:39:18;9.00;99.90
2300;DHT22;1158;48.750;9.078;2023-05-14T01:41:45;8.90;99.90
2300;DHT22;1158;48.750;9.078;2023-05-14T01:44:12;8.80;99.90
2300;DHT22;1158;48.750;9.078;2023-05-14T01:46:39;8.70;99.90
2300;DHT22;1158;48.750;9.078;2023-05-14T01:49:06;8.70;99.90
2300;DHT22;1158;48.750;9.078;2023-05-14T01:51:33;8.70;99.90
2300;DHT22;1158;48.750;9.078;2023-05-14T01:53:59;8.60;99.90
2300;DHT22;1158;48.750;9.078;2023-05-14T01:56:27;8.50;99.90
2300;DHT22;1158;48.750;9.078;2023-05-14T01:58:54;8.50;99.90
2300;DHT22;1158;48.750;9.078;2023-05-14T02:01:21;8.40;99.90
2300;DHT22;1158;48.750;9.078;2023-05-14T02:03:48;8.40;99.90
2300;DHT22;1158;48.750;9.078;2023-05-14T02:06:14;8.30;99.90
2300;DHT22;1158;48.750;9.078;2023-05-14T02:08:41;8.20;99.90
2300;DHT22;1158;48.750;9.078;2023-05-14T02:13:55;8.10;99.90
2300;DHT22;1158;48.750;9.078;2023-05-14T02:16:21;8.00;99.90
2300;DHT22;1158;48.750;9.078;2023-05-14T02:18:48;8.00;99.90
2300;DHT22;1158;48.750;9.078;2023-05-14T02:21:15;7.90;99.90
2300;DHT22;1158;48.750;9.078;2023-05-14T02:23:41;7.90;99.90
2300;DHT22;1158;48.750;9.078;2023-05-14T02:26:09;7.80;99.90
2300;DHT22;1158;48.750;9.078;2023-05-14T02:28:35;7.80;99.90
2300;DHT22;1158;48.750;9.078;2023-05-14T02:31:03;7.80;99.90
2300;DHT22;1158;48.750;9.078;2023-05-14T02:33:30;7.90;99.90
2300;DHT22;1158;48.750;9.078;2023-05-14T02:35:57;7.90;99.90
2300;DHT22;1158;48.750;9.078;2023-05-14T02:38:25;8.00;99.90
2300;DHT22;1158;48.750;9.078;2023-05-14T02:40:51;8.00;99.90
2300;DHT22;1158;48.750;9.078;2023-05-14T02:43:18;8.00;99.90
2300;DHT22;1158;48.750;9.078;2023-05-14T02:45:45;8.00;99.90
2300;DHT22;1158;48.750;9.078;2023-05-14T02:48:13;8.00;99.90
2300;DHT22;1158;48.750;9.078;2023-05-14T02:50:40;8.00;99.90
2300;DHT22;1158;48.750;9.078;2023-05-14T02:53:07;8.00;99.90
2300;DHT22;1158;48.750;9.078;2023-05-14T02:55:34;7.90;99.90
2300;DHT22;1158;48.750;9.078;2023-05-14T02:58:01;7.90;99.90
2300;DHT22;1158;48.750;9.078;2023-05-14T03:00:27;7.90;99.90
2300;DHT22;1158;48.750;9.078;2023-05-14T03:02:54;7.80;99.90
2300;DHT22;1158;48.750;9.078;2023-05-14T03:05:22;7.80;99.90
2300;DHT22;1158;48.750;9.078;2023-05-14T03:07:50;7.90;99.90
2300;DHT22;1158;48.750;9.078;2023-05-14T03:10:18;7.90;99.90
2300;DHT22;1158;48.750;9.078;2023-05-14T03:12:47;8.00;99.90
2300;DHT22;1158;48.750;9.078;2023-05-14T03:15:14;8.10;99.90
2300;DHT22;1158;48.750;9.078;2023-05-14T03:17:40;8.10;99.90
2300;DHT22;1158;48.750;9.078;2023-05-14T03:20:08;8.10;99.90
2300;DHT22;1158;48.750;9.078;2023-05-14T03:22:36;8.00;99.90
2300;DHT22;1158;48.750;9.078;2023-05-14T03:25:03;8.00;99.90
2300;DHT22;1158;48.750;9.078;2023-05-14T03:27:30;8.10;99.90
2300;DHT22;1158;48.750;9.078;2023-05-14T03:29:58;8.10;99.90
2300;DHT22;1158;48.750;9.078;2023-05-14T03:32:24;8.20;99.90
2300;DHT22;1158;48.750;9.078;2023-05-14T03:34:51;8.20;99.90
2300;DHT22;1158;48.750;9.078;2023-05-14T03:37:18;8.20;99.90
2300;DHT22;1158;48.750;9.078;2023-05-14T03:39:47;8.20;99.90
2300;DHT22;1158;48.750;9.078;2023-05-14T03:42:13;8.20;99.90
2300;DHT22;1158;48.750;9.078;2023-05-14T03:44:40;8.20;99.90
2300;DHT22;1158;48.750;9.078;2023-05-14T03:47:07;8.20;99.90
2300;DHT22;1158;48.750;9.078;2023-05-14T03:49:33;8.20;99.90
2300;DHT22;1158;48.750;9.078;2023-05-14T03:52:00;8.30;99.90
2300;DHT22;1158;48.750;9.078;2023-05-14T03:54:27;8.30;99.90
2300;DHT22;1158;48.750;9.078;2023-05-14T03:56:55;8.30;99.90
2300;DHT22;1158;48.750;9.078;2023-05-14T03:59:21;8.30;99.90
2300;DHT22;1158;48.750;9.078;2023-05-14T04:01:49;8.40;99.90
2300;DHT22;1158;48.750;9.078;2023-05-14T04:04:16;8.40;99.90
2300;DHT22;1158;48.750;9.078;2023-05-14T04:06:42;8.40;99.90
2300;DHT22;1158;48.750;9.078;2023-05-14T04:09:09;8.40;99.90
2300;DHT22;1158;48.750;9.078;2023-05-14T04:11:36;8.30;99.90
2300;DHT22;1158;48.750;9.078;2023-05-14T04:14:04;8.30;99.90
2300;DHT22;1158;48.750;9.078;2023-05-14T04:16:31;8.30;99.90
2300;DHT22;1158;48.750;9.078;2023-05-14T04:19:01;8.30;99.90
2300;DHT22;1158;48.750;9.078;2023-05-14T04:21:28;8.30;99.90
2300;DHT22;1158;48.750;9.078;2023-05-14T04:23:54;8.40;99.90
2300;DHT22;1158;48.750;9.078;2023-05-14T04:26:21;8.40;99.90
2300;DHT22;1158;48.750;9.078;2023-05-14T04:28:48;8.40;99.90
2300;DHT22;1158;48.750;9.078;2023-05-14T04:31:16;8.40;99.90
2300;DHT22;1158;48.750;9.078;2023-05-14T04:33:43;8.40;99.90
2300;DHT22;1158;48.750;9.078;2023-05-14T04:36:09;8.40;99.90
2300;DHT22;1158;48.750;9.078;2023-05-14T04:38:36;8.40;99.90
2300;DHT22;1158;48.750;9.078;2023-05-14T04:41:03;8.50;99.90
2300;DHT22;1158;48.750;9.078;2023-05-14T04:43:30;8.50;99.90
2300;DHT22;1158;48.750;9.078;2023-05-14T04:45:57;8.50;99.90
2300;DHT22;1158;48.750;9.078;2023-05-14T04:48:25;8.60;99.90
2300;DHT22;1158;48.750;9.078;2023-05-14T04:50:52;8.60;99.90
2300;DHT22;1158;48.750;9.078;2023-05-14T04:53:18;8.70;99.90
2300;DHT22;1158;48.750;9.078;2023-05-14T04:55:45;8.70;99.90
2300;DHT22;1158;48.750;9.078;2023-05-14T04:58:12;8.80;99.90
2300;DHT22;1158;48.750;9.078;2023-05-14T05:00:38;8.80;99.90
2300;DHT22;1158;48.750;9.078;2023-05-14T05:03:05;8.80;99.90
2300;DHT22;1158;48.750;9.078;2023-05-14T05:05:34;8.80;99.90
2300;DHT22;1158;48.750;9.078;2023-05-14T05:08:01;8.80;99.90
2300;DHT22;1158;48.750;9.078;2023-05-14T05:10:27;8.90;99.90
2300;DHT22;1158;48.750;9.078;2023-05-14T05:12:57;8.90;99.90
2300;DHT22;1158;48.750;9.078;2023-05-14T05:15:24;9.00;99.90
2300;DHT22;1158;48.750;9.078;2023-05-14T05:17:50;9.00;99.90
2300;DHT22;1158;48.750;9.078;2023-05-14T05:20:17;9.00;99.90
2300;DHT22;1158;48.750;9.078;2023-05-14T05:22:45;9.00;99.90
2300;DHT22;1158;48.750;9.078;2023-05-14T05:25:12;9.10;99.90
2300;DHT22;1158;48.750;9.078;2023-05-14T05:27:38;9.10;99.90
2300;DHT22;1158;48.750;9.078;2023-05-14T05:30:06;9.10;99.90
2300;DHT22;1158;48.750;9.078;2023-05-14T05:32:33;9.10;99.90
2300;DHT22;1158;48.750;9.078;2023-05-14T05:35:00;9.20;99.90
2300;DHT22;1158;48.750;9.078;2023-05-14T05:37:27;9.20;99.90
2300;DHT22;1158;48.750;9.078;2023-05-14T05:39:55;9.20;99.90
2300;DHT22;1158;48.750;9.078;2023-05-14T05:42:22;9.20;99.90
2300;DHT22;1158;48.750;9.078;2023-05-14T05:44:49;9.30;99.90
2300;DHT22;1158;48.750;9.078;2023-05-14T05:47:16;9.30;99.90
2300;DHT22;1158;48.750;9.078;2023-05-14T05:49:42;9.40;99.90
2300;DHT22;1158;48.750;9.078;2023-05-14T05:52:09;9.40;99.90
2300;DHT22;1158;48.750;9.078;2023-05-14T05:54:36;9.40;99.90
2300;DHT22;1158;48.750;9.078;2023-05-14T05:57:05;9.50;99.90
2300;DHT22;1158;48.750;9.078;2023-05-14T05:59:32;9.50;99.90
2300;DHT22;1158;48.750;9.078;2023-05-14T06:01:59;9.60;99.90
2300;DHT22;1158;48.750;9.078;2023-05-14T06:04:25;9.40;99.90
2300;DHT22;1158;48.750;9.078;2023-05-14T06:06:52;9.60;99.90
2300;DHT22;1158;48.750;9.078;2023-05-14T06:09:19;9.60;99.90
2300;DHT22;1158;48.750;9.078;2023-05-14T06:11:46;9.60;99.90
2300;DHT22;1158;48.750;9.078;2023-05-14T06:14:14;9.70;99.90
2300;DHT22;1158;48.750;9.078;2023-05-14T06:16:40;9.80;99.90
2300;DHT22;1158;48.750;9.078;2023-05-14T06:19:07;10.00;99.90
2300;DHT22;1158;48.750;9.078;2023-05-14T06:21:34;10.10;99.90
2300;DHT22;1158;48.750;9.078;2023-05-14T06:24:01;10.10;99.90
2300;DHT22;1158;48.750;9.078;2023-05-14T06:26:28;10.00;99.90
2300;DHT22;1158;48.750;9.078;2023-05-14T06:28:54;10.00;99.90
2300;DHT22;1158;48.750;9.078;2023-05-14T06:31:22;9.90;99.90
2300;DHT22;1158;48.750;9.078;2023-05-14T06:33:49;9.90;99.90
2300;DHT22;1158;48.750;9.078;2023-05-14T06:36:16;10.00;99.90
2300;DHT22;1158;48.750;9.078;2023-05-14T06:38:42;10.20;99.90
2300;DHT22;1158;48.750;9.078;2023-05-14T06:41:09;10.40;99.90
2300;DHT22;1158;48.750;9.078;2023-05-14T06:43:36;10.50;99.90
2300;DHT22;1158;48.750;9.078;2023-05-14T06:46:02;10.50;99.90
2300;DHT22;1158;48.750;9.078;2023-05-14T06:48:30;10.60;99.90
2300;DHT22;1158;48.750;9.078;2023-05-14T06:50:57;10.80;99.90
2300;DHT22;1158;48.750;9.078;2023-05-14T06:53:23;10.90;99.90
2300;DHT22;1158;48.750;9.078;2023-05-14T06:55:50;10.90;99.90
2300;DHT22;1158;48.750;9.078;2023-05-14T06:58:17;10.90;99.90
2300;DHT22;1158;48.750;9.078;2023-05-14T07:00:44;11.10;99.90
2300;DHT22;1158;48.750;9.078;2023-05-14T07:03:10;11.40;99.90
2300;DHT22;1158;48.750;9.078;2023-05-14T07:05:38;11.60;99.90
2300;DHT22;1158;48.750;9.078;2023-05-14T07:08:06;11.60;99.90
2300;DHT22;1158;48.750;9.078;2023-05-14T07:10:33;11.70;99.90
2300;DHT22;1158;48.750;9.078;2023-05-14T07:13:00;11.70;99.90
2300;DHT22;1158;48.750;9.078;2023-05-14T07:15:27;12.00;99.90
2300;DHT22;1158;48.750;9.078;2023-05-14T07:17:54;12.00;99.90
2300;DHT22;1158;48.750;9.078;2023-05-14T07:20:21;11.90;99.90
2300;DHT22;1158;48.750;9.078;2023-05-14T07:22:51;12.10;99.90
2300;DHT22;1158;48.750;9.078;2023-05-14T07:25:18;12.00;99.90
2300;DHT22;1158;48.750;9.078;2023-05-14T07:27:44;11.80;99.90
2300;DHT22;1158;48.750;9.078;2023-05-14T07:30:12;12.20;99.90
2300;DHT22;1158;48.750;9.078;2023-05-14T07:32:38;12.70;99.90
2300;DHT22;1158;48.750;9.078;2023-05-14T07:35:06;12.80;99.90
2300;DHT22;1158;48.750;9.078;2023-05-14T07:37:33;13.10;99.90
2300;DHT22;1158;48.750;9.078;2023-05-14T07:40:01;13.00;99.90
2300;DHT22;1158;48.750;9.078;2023-05-14T07:42:28;13.20;99.90
2300;DHT22;1158;48.750;9.078;2023-05-14T07:44:57;13.20;99.90
2300;DHT22;1158;48.750;9.078;2023-05-14T07:47:23;13.40;99.90
2300;DHT22;1158;48.750;9.078;2023-05-14T07:49:53;13.30;99.90
2300;DHT22;1158;48.750;9.078;2023-05-14T07:52:20;13.30;99.90
2300;DHT22;1158;48.750;9.078;2023-05-14T07:54:47;13.40;99.90
2300;DHT22;1158;48.750;9.078;2023-05-14T07:57:15;13.60;99.90
2300;DHT22;1158;48.750;9.078;2023-05-14T07:59:41;13.50;99.90
2300;DHT22;1158;48.750;9.078;2023-05-14T08:02:08;13.90;99.90
2300;DHT22;1158;48.750;9.078;2023-05-14T08:04:37;14.20;99.90
2300;DHT22;1158;48.750;9.078;2023-05-14T08:07:03;14.40;99.90
2300;DHT22;1158;48.750;9.078;2023-05-14T08:09:31;14.20;99.90
2300;DHT22;1158;48.750;9.078;2023-05-14T08:11:58;14.80;99.90
2300;DHT22;1158;48.750;9.078;2023-05-14T08:14:26;15.40;99.90
2300;DHT22;1158;48.750;9.078;2023-05-14T08:16:53;15.30;99.90
2300;DHT22;1158;48.750;9.078;2023-05-14T08:19:21;16.10;99.90
2300;DHT22;1158;48.750;9.078;2023-05-14T08:21:48;17.70;99.90
2300;DHT22;1158;48.750;9.078;2023-05-14T08:24:16;18.10;99.90
2300;DHT22;1158;48.750;9.078;2023-05-14T08:26:43;18.70;99.90
2300;DHT22;1158;48.750;9.078;2023-05-14T08:29:11;20.60;99.90
2300;DHT22;1158;48.750;9.078;2023-05-14T08:31:39;21.80;99.90
2300;DHT22;1158;48.750;9.078;2023-05-14T08:34:06;21.40;99.90
2300;DHT22;1158;48.750;9.078;2023-05-14T08:36:32;21.40;99.90
2300;DHT22;1158;48.750;9.078;2023-05-14T08:38:59;21.90;99.90
2300;DHT22;1158;48.750;9.078;2023-05-14T08:41:26;21.90;99.90
2300;DHT22;1158;48.750;9.078;2023-05-14T08:43:59;22.70;99.90
2300;DHT22;1158;48.750;9.078;2023-05-14T08:46:29;22.20;99.90
2300;DHT22;1158;48.750;9.078;2023-05-14T08:49:02;21.60;99.90
2300;DHT22;1158;48.750;9.078;2023-05-14T08:51:30;19.70;99.90
2300;DHT22;1158;48.750;9.078;2023-05-14T08:53:58;18.70;99.90
2300;DHT22;1158;48.750;9.078;2023-05-14T08:56:29;18.90;99.90
2300;DHT22;1158;48.750;9.078;2023-05-14T08:58:57;19.10;99.90
2300;DHT22;1158;48.750;9.078;2023-05-14T09:01:24;19.00;99.90
2300;DHT22;1158;48.750;9.078;2023-05-14T09:03:51;18.00;99.90
2300;DHT22;1158;48.750;9.078;2023-05-14T09:06:20;17.80;99.90
2300;DHT22;1158;48.750;9.078;2023-05-14T09:08:47;18.00;99.90
2300;DHT22;1158;48.750;9.078;2023-05-14T09:11:14;18.40;99.90
2300;DHT22;1158;48.750;9.078;2023-05-14T09:13:41;18.20;99.90
2300;DHT22;1158;48.750;9.078;2023-05-14T09:16:08;17.90;99.90
2300;DHT22;1158;48.750;9.078;2023-05-14T09:18:35;16.80;99.90
2300;DHT22;1158;48.750;9.078;2023-05-14T09:21:02;16.80;99.90
2300;DHT22;1158;48.750;9.078;2023-05-14T09:23:32;15.90;99.90
2300;DHT22;1158;48.750;9.078;2023-05-14T09:26:03;16.40;99.90
2300;DHT22;1158;48.750;9.078;2023-05-14T09:28:30;16.50;99.90
2300;DHT22;1158;48.750;9.078;2023-05-14T09:30:57;16.50;99.90
2300;DHT22;1158;48.750;9.078;2023-05-14T09:33:27;16.50;99.90
2300;DHT22;1158;48.750;9.078;2023-05-14T09:35:57;16.90;99.90
2300;DHT22;1158;48.750;9.078;2023-05-14T09:38:27;17.80;99.90
2300;DHT22;1158;48.750;9.078;2023-05-14T09:40:56;18.70;99.90
2300;DHT22;1158;48.750;9.078;2023-05-14T09:43:23;20.00;99.90
2300;DHT22;1158;48.750;9.078;2023-05-14T09:45:50;20.90;99.90
2300;DHT22;1158;48.750;9.078;2023-05-14T09:48:20;21.00;99.90
2300;DHT22;1158;48.750;9.078;2023-05-14T09:50:48;20.90;99.90
2300;DHT22;1158;48.750;9.078;2023-05-14T09:53:16;20.50;99.90
2300;DHT22;1158;48.750;9.078;2023-05-14T09:55:44;20.60;99.90
2300;DHT22;1158;48.750;9.078;2023-05-14T09:58:12;20.80;99.90
2300;DHT22;1158;48.750;9.078;2023-05-14T10:00:43;20.40;99.90
2300;DHT22;1158;48.750;9.078;2023-05-14T10:03:12;21.00;99.90
2300;DHT22;1158;48.750;9.078;2023-05-14T10:05:40;22.00;99.90
2300;DHT22;1158;48.750;9.078;2023-05-14T10:08:11;21.50;98.60
2300;DHT22;1158;48.750;9.078;2023-05-14T10:10:38;20.30;99.90
2300;DHT22;1158;48.750;9.078;2023-05-14T10:13:09;20.00;99.90
2300;DHT22;1158;48.750;9.078;2023-05-14T10:15:45;20.00;99.70
2300;DHT22;1158;48.750;9.078;2023-05-14T10:18:16;20.00;99.90
2300;DHT22;1158;48.750;9.078;2023-05-14T10:20:47;20.10;99.90
2300;DHT22;1158;48.750;9.078;2023-05-14T10:23:14;19.80;99.90
2300;DHT22;1158;48.750;9.078;2023-05-14T10:25:41;19.10;99.90
2300;DHT22;1158;48.750;9.078;2023-05-14T10:28:08;17.90;99.90
2300;DHT22;1158;48.750;9.078;2023-05-14T10:30:44;17.70;99.90
2300;DHT22;1158;48.750;9.078;2023-05-14T10:33:12;17.90;99.90
2300;DHT22;1158;48.750;9.078;2023-05-14T10:35:56;18.00;99.90
2300;DHT22;1158;48.750;9.078;2023-05-14T10:38:25;17.70;99.90
2300;DHT22;1158;48.750;9.078;2023-05-14T10:40:55;17.20;99.90
2300;DHT22;1158;48.750;9.078;2023-05-14T10:43:24;17.50;99.90
2300;DHT22;1158;48.750;9.078;2023-05-14T10:45:54;17.60;99.90
2300;DHT22;1158;48.750;9.078;2023-05-14T10:48:21;18.00;99.90
2300;DHT22;1158;48.750;9.078;2023-05-14T10:50:49;18.30;99.90
2300;DHT22;1158;48.750;9.078;2023-05-14T10:53:16;18.30;99.90
2300;DHT22;1158;48.750;9.078;2023-05-14T10:55:44;18.60;99.90
2300;DHT22;1158;48.750;9.078;2023-05-14T10:58:11;19.30;99.90
2300;DHT22;1158;48.750;9.078;2023-05-14T11:00:39;19.80;99.90
2300;DHT22;1158;48.750;9.078;2023-05-14T11:03:07;20.20;99.90
2300;DHT22;1158;48.750;9.078;2023-05-14T11:05:34;20.00;99.90
2300;DHT22;1158;48.750;9.078;2023-05-14T11:08:04;20.50;99.90
2300;DHT22;1158;48.750;9.078;2023-05-14T11:10:32;21.40;98.70
2300;DHT22;1158;48.750;9.078;2023-05-14T11:12:59;21.90;98.40
2300;DHT22;1158;48.750;9.078;2023-05-14T11:15:26;21.30;98.30
2300;DHT22;1158;48.750;9.078;2023-05-14T11:17:53;20.80;98.80
2300;DHT22;1158;48.750;9.078;2023-05-14T11:20:21;20.70;98.80
2300;DHT22;1158;48.750;9.078;2023-05-14T11:22:48;20.90;99.00
2300;DHT22;1158;48.750;9.078;2023-05-14T11:25:16;21.80;98.30
2300;DHT22;1158;48.750;9.078;2023-05-14T11:27:44;21.80;97.30
2300;DHT22;1158;48.750;9.078;2023-05-14T11:30:13;21.00;97.90
2300;DHT22;1158;48.750;9.078;2023-05-14T11:32:41;20.00;99.80
2300;DHT22;1158;48.750;9.078;2023-05-14T11:35:09;20.60;99.90
2300;DHT22;1158;48.750;9.078;2023-05-14T11:37:37;21.60;99.90
2300;DHT22;1158;48.750;9.078;2023-05-14T11:40:06;21.30;99.60
2300;DHT22;1158;48.750;9.078;2023-05-14T11:42:35;21.70;99.60
2300;DHT22;1158;48.750;9.078;2023-05-14T11:45:02;23.00;98.40
2300;DHT22;1158;48.750;9.078;2023-05-14T11:47:29;23.60;97.20
2300;DHT22;1158;48.750;9.078;2023-05-14T11:49:56;23.90;96.30
2300;DHT22;1158;48.750;9.078;2023-05-14T11:52:24;25.30;95.90
2300;DHT22;1158;48.750;9.078;2023-05-14T11:54:52;25.80;93.50
2300;DHT22;1158;48.750;9.078;2023-05-14T11:57:19;25.80;92.90
2300;DHT22;1158;48.750;9.078;2023-05-14T11:59:47;24.70;93.90
2300;DHT22;1158;48.750;9.078;2023-05-14T12:02:16;22.70;95.60
2300;DHT22;1158;48.750;9.078;2023-05-14T12:04:45;21.30;96.70
2300;DHT22;1158;48.750;9.078;2023-05-14T12:07:15;20.50;97.70
2300;DHT22;1158;48.750;9.078;2023-05-14T12:09:46;20.30;98.10
2300;DHT22;1158;48.750;9.078;2023-05-14T12:12:18;19.70;98.30
2300;DHT22;1158;48.750;9.078;2023-05-14T12:14:46;19.80;99.10
2300;DHT22;1158;48.750;9.078;2023-05-14T12:17:14;20.90;98.40
2300;DHT22;1158;48.750;9.078;2023-05-14T12:19:42;22.10;97.40
2300;DHT22;1158;48.750;9.078;2023-05-14T12:22:09;22.20;95.80
2300;DHT22;1158;48.750;9.078;2023-05-14T12:24:36;21.50;96.20
2300;DHT22;1158;48.750;9.078;2023-05-14T12:27:04;20.30;97.30
2300;DHT22;1158;48.750;9.078;2023-05-14T12:29:34;19.80;97.70
2300;DHT22;1158;48.750;9.078;2023-05-14T12:32:02;19.40;97.90
2300;DHT22;1158;48.750;9.078;2023-05-14T12:34:33;20.10;99.20
2300;DHT22;1158;48.750;9.078;2023-05-14T12:36:59;22.00;97.50
2300;DHT22;1158;48.750;9.078;2023-05-14T12:39:26;22.90;95.20
2300;DHT22;1158;48.750;9.078;2023-05-14T12:41:54;23.40;95.80
2300;DHT22;1158;48.750;9.078;2023-05-14T12:44:20;24.30;94.40
2300;DHT22;1158;48.750;9.078;2023-05-14T12:46:48;23.60;94.90
2300;DHT22;1158;48.750;9.078;2023-05-14T12:49:15;23.30;95.90
2300;DHT22;1158;48.750;9.078;2023-05-14T12:51:42;22.30;99.20
2300;DHT22;1158;48.750;9.078;2023-05-14T12:54:08;21.70;99.90
2300;DHT22;1158;48.750;9.078;2023-05-14T12:56:37;20.60;99.90
2300;DHT22;1158;48.750;9.078;2023-05-14T12:59:03;18.70;99.90
2300;DHT22;1158;48.750;9.078;2023-05-14T13:01:30;18.40;99.90
2300;DHT22;1158;48.750;9.078;2023-05-14T13:03:58;18.30;99.90
2300;DHT22;1158;48.750;9.078;2023-05-14T13:06:25;18.10;99.90
2300;DHT22;1158;48.750;9.078;2023-05-14T13:08:51;18.10;99.90
2300;DHT22;1158;48.750;9.078;2023-05-14T13:11:18;18.10;99.90
2300;DHT22;1158;48.750;9.078;2023-05-14T13:13:45;17.80;99.90
2300;DHT22;1158;48.750;9.078;2023-05-14T13:16:17;19.00;99.90
2300;DHT22;1158;48.750;9.078;2023-05-14T13:18:44;21.00;99.90
2300;DHT22;1158;48.750;9.078;2023-05-14T13:21:12;22.50;99.90
2300;DHT22;1158;48.750;9.078;2023-05-14T13:23:39;23.80;99.90
2300;DHT22;1158;48.750;9.078;2023-05-14T13:26:06;24.80;98.00
2300;DHT22;1158;48.750;9.078;2023-05-14T13:28:32;24.10;98.90
2300;DHT22;1158;48.750;9.078;2023-05-14T13:31:04;25.20;98.60
2300;DHT22;1158;48.750;9.078;2023-05-14T13:33:32;24.80;97.60
2300;DHT22;1158;48.750;9.078;2023-05-14T13:35:59;23.50;98.60
2300;DHT22;1158;48.750;9.078;2023-05-14T13:38:27;21.90;99.10
2300;DHT22;1158;48.750;9.078;2023-05-14T13:40:54;21.80;98.40
2300;DHT22;1158;48.750;9.078;2023-05-14T13:43:26;21.20;98.80
2300;DHT22;1158;48.750;9.078;2023-05-14T13:45:52;21.00;99.60
2300;DHT22;1158;48.750;9.078;2023-05-14T13:48:19;20.70;99.60
2300;DHT22;1158;48.750;9.078;2023-05-14T13:50:46;20.40;99.70
2300;DHT22;1158;48.750;9.078;2023-05-14T13:53:12;20.20;99.90
2300;DHT22;1158;48.750;9.078;2023-05-14T13:55:41;20.10;99.90
2300;DHT22;1158;48.750;9.078;2023-05-14T13:58:07;19.90;99.70
2300;DHT22;1158;48.750;9.078;2023-05-14T14:00:35;19.70;99.90
2300;DHT22;1158;48.750;9.078;2023-05-14T14:03:01;19.80;99.90
2300;DHT22;1158;48.750;9.078;2023-05-14T14:05:28;19.70;99.90
2300;DHT22;1158;48.750;9.078;2023-05-14T14:07:56;19.70;99.90
2300;DHT22;1158;48.750;9.078;2023-05-14T14:10:22;18.90;99.50
2300;DHT22;1158;48.750;9.078;2023-05-14T14:12:51;18.70;99.80
2300;DHT22;1158;48.750;9.078;2023-05-14T14:15:18;18.50;99.90
2300;DHT22;1158;48.750;9.078;2023-05-14T14:17:44;18.50;99.90
2300;DHT22;1158;48.750;9.078;2023-05-14T14:20:11;18.50;99.90
2300;DHT22;1158;48.750;9.078;2023-05-14T14:22:39;18.40;99.90
2300;DHT22;1158;48.750;9.078;2023-05-14T14:25:06;18.70;99.90
2300;DHT22;1158;48.750;9.078;2023-05-14T14:27:34;18.80;99.40
2300;DHT22;1158;48.750;9.078;2023-05-14T14:30:06;18.90;98.60
2300;DHT22;1158;48.750;9.078;2023-05-14T14:32:32;19.00;98.40
2300;DHT22;1158;48.750;9.078;2023-05-14T14:34:59;18.60;99.00
2300;DHT22;1158;48.750;9.078;2023-05-14T14:37:26;19.00;98.40
2300;DHT22;1158;48.750;9.078;2023-05-14T14:39:52;19.20;98.90
2300;DHT22;1158;48.750;9.078;2023-05-14T14:42:19;19.60;97.20
2300;DHT22;1158;48.750;9.078;2023-05-14T14:44:46;19.60;96.80
2300;DHT22;1158;48.750;9.078;2023-05-14T14:47:14;20.10;96.60
2300;DHT22;1158;48.750;9.078;2023-05-14T14:49:41;20.10;96.90
2300;DHT22;1158;48.750;9.078;2023-05-14T14:52:08;20.10;97.60
2300;DHT22;1158;48.750;9.078;2023-05-14T14:54:34;21.00;97.40
2300;DHT22;1158;48.750;9.078;2023-05-14T14:57:01;22.30;96.70
2300;DHT22;1158;48.750;9.078;2023-05-14T14:59:28;22.60;94.50
2300;DHT22;1158;48.750;9.078;2023-05-14T15:01:54;21.80;95.00
2300;DHT22;1158;48.750;9.078;2023-05-14T15:04:22;20.40;96.00
2300;DHT22;1158;48.750;9.078;2023-05-14T15:06:49;19.80;96.50
2300;DHT22;1158;48.750;9.078;2023-05-14T15:09:16;19.40;97.40
2300;DHT22;1158;48.750;9.078;2023-05-14T15:11:43;19.60;97.80
2300;DHT22;1158;48.750;9.078;2023-05-14T15:14:09;19.60;97.70
2300;DHT22;1158;48.750;9.078;2023-05-14T15:16:37;18.90;98.00
2300;DHT22;1158;48.750;9.078;2023-05-14T15:19:04;19.00;98.30
2300;DHT22;1158;48.750;9.078;2023-05-14T15:21:32;19.90;97.30
2300;DHT22;1158;48.750;9.078;2023-05-14T15:23:58;21.60;95.30
2300;DHT22;1158;48.750;9.078;2023-05-14T15:26:25;22.60;94.80
2300;DHT22;1158;48.750;9.078;2023-05-14T15:28:52;23.50;92.70
2300;DHT22;1158;48.750;9.078;2023-05-14T15:31:18;23.40;92.40
2300;DHT22;1158;48.750;9.078;2023-05-14T15:33:45;23.80;92.90
2300;DHT22;1158;48.750;9.078;2023-05-14T15:36:12;23.60;91.40
2300;DHT22;1158;48.750;9.078;2023-05-14T15:38:40;22.70;93.30
2300;DHT22;1158;48.750;9.078;2023-05-14T15:41:07;23.60;92.80
2300;DHT22;1158;48.750;9.078;2023-05-14T15:43:34;24.20;91.50
2300;DHT22;1158;48.750;9.078;2023-05-14T15:46:01;23.90;91.10
2300;DHT22;1158;48.750;9.078;2023-05-14T15:48:27;24.20;92.40
2300;DHT22;1158;48.750;9.078;2023-05-14T15:50:54;25.10;91.90
2300;DHT22;1158;48.750;9.078;2023-05-14T15:53:21;24.60;91.10
2300;DHT22;1158;48.750;9.078;2023-05-14T15:55:49;22.90;92.30
2300;DHT22;1158;48.750;9.078;2023-05-14T15:58:15;22.50;92.40
2300;DHT22;1158;48.750;9.078;2023-05-14T16:00:49;22.00;92.90
2300;DHT22;1158;48.750;9.078;2023-05-14T16:03:16;22.10;93.30
2300;DHT22;1158;48.750;9.078;2023-05-14T16:05:43;22.20;93.50
2300;DHT22;1158;48.750;9.078;2023-05-14T16:08:09;22.10;93.50
2300;DHT22;1158;48.750;9.078;2023-05-14T16:10:36;21.60;94.10